sensor_id;sensor_type;location;lat;lon;timestamp;pressure;altitude;pressure_sealevel;temperature;humidity
19736;BME280;32064;49.310;8.646;2024-02-14T00:00:54;100981.97;;;11.28;56.15
19736;BME280;32064;49.310;8.646;2024-02-14T00:03:21;100975.56;;;11.32;57.52
19736;BME280;32064;49.310;8.646;2024-02-14T00:05:48;100980.09;;;11.30;55.97
19736;BME280;32064;49.310;8.646;2024-02-14T00:08:13;100979.06;;;11.33;56.46
19736;BME280;32064;49.310;8.646;2024-02-14T00:10:40;100978.94;;;11.34;57.32
19736;BME280;32064;49.310;8.646;2024-02-14T00:13:08;100994.00;;;11.32;57.02
19736;BME280;32064;49.310;8.646;2024-02-14T00:15:37;100981.50;;;11.36;57.68
19736;BME280;32064;49.310;8.646;2024-02-14T00:18:03;100986.44;;;11.40;57.77
19736;BME280;32064;49.310;8.646;2024-02-14T00:20:31;100991.63;;;11.42;57.83
19736;BME280;32064;49.310;8.646;2024-02-14T00:22:57;100992.91;;;11.49;57.58
19736;BME280;32064;49.310;8.646;2024-02-14T00:25:23;100991.22;;;11.48;55.92
19736;BME280;32064;49.310;8.646;2024-02-14T00:27:51;100996.41;;;11.50;57.71
19736;BME280;32064;49.310;8.646;2024-02-14T00:30:16;101001.38;;;11.54;57.31
19736;BME280;32064;49.310;8.646;2024-02-14T00:32:42;101000.25;;;11.58;55.92
19736;BME280;32064;49.310;8.646;2024-02-14T00:35:07;101005.19;;;11.63;57.24
19736;BME280;32064;49.310;8.646;2024-02-14T00:37:33;101004.16;;;11.65;55.67
19736;BME280;32064;49.310;8.646;2024-02-14T00:40:05;100996.16;;;11.67;57.90
19736;BME280;32064;49.310;8.646;2024-02-14T00:42:31;100989.19;;;11.66;58.13
19736;BME280;32064;49.310;8.646;2024-02-14T00:44:56;100993.41;;;11.68;56.27
19736;BME280;32064;49.310;8.646;2024-02-14T00:47:21;100994.44;;;11.66;58.32
19736;BME280;32064;49.310;8.646;2024-02-14T00:49:47;100996.88;;;11.69;57.40
19736;BME280;32064;49.310;8.646;2024-02-14T00:52:12;100983.63;;;11.71;57.36
19736;BME280;32064;49.310;8.646;2024-02-14T00:54:38;100992.56;;;11.68;57.62
19736;BME280;32064;49.310;8.646;2024-02-14T00:57:12;100981.47;;;11.63;57.48
19736;BME280;32064;49.310;8.646;2024-02-14T00:59:38;100979.81;;;11.62;57.40
19736;BME280;32064;49.310;8.646;2024-02-14T01:02:04;100985.91;;;11.62;57.90
19736;BME280;32064;49.310;8.646;2024-02-14T01:04:40;100977.03;;;11.51;56.86
19736;BME280;32064;49.310;8.646;2024-02-14T01:07:06;100977.03;;;11.51;57.47
19736;BME280;32064;49.310;8.646;2024-02-14T01:09:32;100981.53;;;11.49;58.33
19736;BME280;32064;49.310;8.646;2024-02-14T01:11:58;100985.13;;;11.48;57.22
19736;BME280;32064;49.310;8.646;2024-02-14T01:14:26;100981.44;;;11.50;57.33
19736;BME280;32064;49.310;8.646;2024-02-14T01:16:51;100973.44;;;11.52;57.81
19736;BME280;32064;49.310;8.646;2024-02-14T01:19:20;100986.72;;;11.50;58.40
19736;BME280;32064;49.310;8.646;2024-02-14T01:21:55;100978.19;;;11.46;58.05
19736;BME280;32064;49.310;8.646;2024-02-14T01:24:22;100975.72;;;11.43;58.15
19736;BME280;32064;49.310;8.646;2024-02-14T01:26:48;100971.09;;;11.47;56.50
19736;BME280;32064;49.310;8.646;2024-02-14T01:29:15;100967.97;;;11.55;57.03
19736;BME280;32064;49.310;8.646;2024-02-14T01:31:42;100967.66;;;11.59;57.25
19736;BME280;32064;49.310;8.646;2024-02-14T01:34:07;100969.06;;;11.65;57.29
19736;BME280;32064;49.310;8.646;2024-02-14T01:36:33;100968.78;;;11.69;56.96
19736;BME280;32064;49.310;8.646;2024-02-14T01:39:01;100968.44;;;11.74;58.35
19736;BME280;32064;49.310;8.646;2024-02-14T01:41:26;100966.84;;;11.72;58.20
19736;BME280;32064;49.310;8.646;2024-02-14T01:43:51;100956.44;;;11.70;57.37
19736;BME280;32064;49.310;8.646;2024-02-14T01:46:17;100944.72;;;11.74;58.45
19736;BME280;32064;49.310;8.646;2024-02-14T01:48:46;100953.78;;;11.70;58.66
19736;BME280;32064;49.310;8.646;2024-02-14T01:51:15;100941.53;;;11.69;57.07
19736;BME280;32064;49.310;8.646;2024-02-14T01:53:42;100935.34;;;11.70;59.16
19736;BME280;32064;49.310;8.646;2024-02-14T01:56:08;100927.31;;;11.72;57.90
19736;BME280;32064;49.310;8.646;2024-02-14T01:58:33;100929.03;;;11.73;58.57
19736;BME280;32064;49.310;8.646;2024-02-14T02:00:59;100922.72;;;11.75;59.23
19736;BME280;32064;49.310;8.646;2024-02-14T02:03:25;100927.97;;;11.75;58.49
19736;BME280;32064;49.310;8.646;2024-02-14T02:05:52;100927.56;;;11.81;58.87
19736;BME280;32064;49.310;8.646;2024-02-14T02:08:19;100924.94;;;11.81;59.79
19736;BME280;32064;49.310;8.646;2024-02-14T02:10:45;100920.28;;;11.85;58.63
19736;BME280;32064;49.310;8.646;2024-02-14T02:13:10;100922.53;;;11.91;57.56
19736;BME280;32064;49.310;8.646;2024-02-14T02:15:35;100916.44;;;11.90;58.16
19736;BME280;32064;49.310;8.646;2024-02-14T02:18:03;100915.59;;;11.90;59.12
19736;BME280;32064;49.310;8.646;2024-02-14T02:20:31;100914.97;;;11.86;59.52
19736;BME280;32064;49.310;8.646;2024-02-14T02:22:58;100909.00;;;11.83;59.16
19736;BME280;32064;49.310;8.646;2024-02-14T02:25:23;100900.47;;;11.79;58.17
19736;BME280;32064;49.310;8.646;2024-02-14T02:27:50;100907.97;;;11.85;59.13
19736;BME280;32064;49.310;8.646;2024-02-14T02:30:15;100906.84;;;11.89;59.53
19736;BME280;32064;49.310;8.646;2024-02-14T02:32:42;100911.38;;;11.87;59.74
19736;BME280;32064;49.310;8.646;2024-02-14T02:35:10;100899.19;;;11.85;58.23
19736;BME280;32064;49.310;8.646;2024-02-14T02:37:36;100896.38;;;11.88;57.95
19736;BME280;32064;49.310;8.646;2024-02-14T02:40:01;100899.03;;;11.88;57.79
19736;BME280;32064;49.310;8.646;2024-02-14T02:42:27;100901.34;;;11.93;58.47
19736;BME280;32064;49.310;8.646;2024-02-14T02:44:54;100897.22;;;11.88;59.34
19736;BME280;32064;49.310;8.646;2024-02-14T02:47:19;100899.97;;;11.87;59.67
19736;BME280;32064;49.310;8.646;2024-02-14T02:49:45;100893.59;;;11.77;58.32
19736;BME280;32064;49.310;8.646;2024-02-14T02:52:11;100898.88;;;11.77;59.96
19736;BME280;32064;49.310;8.646;2024-02-14T02:54:37;100904.06;;;11.78;58.53
19736;BME280;32064;49.310;8.646;2024-02-14T02:57:07;100903.00;;;11.81;59.33
19736;BME280;32064;49.310;8.646;2024-02-14T02:59:32;100901.84;;;11.85;58.67
19736;BME280;32064;49.310;8.646;2024-02-14T03:01:58;100898.03;;;11.76;59.64
19736;BME280;32064;49.310;8.646;2024-02-14T03:04:24;100898.44;;;11.83;59.60
19736;BME280;32064;49.310;8.646;2024-02-14T03:06:50;100908.28;;;11.81;59.11
19736;BME280;32064;49.310;8.646;2024-02-14T03:09:15;100912.38;;;11.85;58.62
19736;BME280;32064;49.310;8.646;2024-02-14T03:11:46;100913.25;;;11.85;58.59
19736;BME280;32064;49.310;8.646;2024-02-14T03:14:12;100927.81;;;11.91;59.38
19736;BME280;32064;49.310;8.646;2024-02-14T03:16:38;100928.56;;;11.93;58.90
19736;BME280;32064;49.310;8.646;2024-02-14T03:19:04;100920.56;;;11.95;58.43
19736;BME280;32064;49.310;8.646;2024-02-14T03:21:30;100923.19;;;11.95;58.63
19736;BME280;32064;49.310;8.646;2024-02-14T03:23:58;100917.38;;;12.02;59.11
19736;BME280;32064;49.310;8.646;2024-02-14T03:26:23;100925.97;;;12.06;60.22
19736;BME280;32064;49.310;8.646;2024-02-14T03:28:52;100919.59;;;12.08;58.13
19736;BME280;32064;49.310;8.646;2024-02-14T03:31:19;100927.22;;;12.13;58.30
19736;BME280;32064;49.310;8.646;2024-02-14T03:33:45;100938.59;;;12.13;57.76
19736;BME280;32064;49.310;8.646;2024-02-14T03:36:11;100933.13;;;12.17;59.39
19736;BME280;32064;49.310;8.646;2024-02-14T03:38:36;100931.66;;;12.12;58.50
19736;BME280;32064;49.310;8.646;2024-02-14T03:41:02;100927.13;;;12.15;58.27
19736;BME280;32064;49.310;8.646;2024-02-14T03:43:27;100929.09;;;12.11;59.70
19736;BME280;32064;49.310;8.646;2024-02-14T03:45:53;100935.34;;;12.10;58.99
19736;BME280;32064;49.310;8.646;2024-02-14T03:48:19;100941.38;;;12.12;58.83
19736;BME280;32064;49.310;8.646;2024-02-14T03:50:45;100944.22;;;12.22;58.73
19736;BME280;32064;49.310;8.646;2024-02-14T03:53:10;100936.00;;;12.26;57.94
19736;BME280;32064;49.310;8.646;2024-02-14T03:55:40;100945.50;;;12.29;58.68
19736;BME280;32064;49.310;8.646;2024-02-14T03:58:09;100937.38;;;12.32;58.88
19736;BME280;32064;49.310;8.646;2024-02-14T04:00:34;100949.50;;;12.34;57.47
19736;BME280;32064;49.310;8.646;2024-02-14T04:03:05;100945.06;;;12.35;58.78
19736;BME280;32064;49.310;8.646;2024-02-14T04:05:32;100936.09;;;12.38;57.09
19736;BME280;32064;49.310;8.646;2024-02-14T04:07:57;100935.44;;;12.34;57.81
19736;BME280;32064;49.310;8.646;2024-02-14T04:10:22;100938.81;;;12.36;57.92
19736;BME280;32064;49.310;8.646;2024-02-14T04:12:48;100931.75;;;12.36;57.29
19736;BME280;32064;49.310;8.646;2024-02-14T04:15:14;100930.28;;;12.32;57.67
19736;BME280;32064;49.310;8.646;2024-02-14T04:17:39;100943.78;;;12.28;58.12
19736;BME280;32064;49.310;8.646;2024-02-14T04:20:05;100937.44;;;12.30;58.56
19736;BME280;32064;49.310;8.646;2024-02-14T04:22:31;100927.75;;;12.31;57.43
19736;BME280;32064;49.310;8.646;2024-02-14T04:24:56;100934.06;;;12.28;57.98
19736;BME280;32064;49.310;8.646;2024-02-14T04:27:22;100940.31;;;12.27;57.34
19736;BME280;32064;49.310;8.646;2024-02-14T04:29:47;100953.06;;;12.33;57.87
19736;BME280;32064;49.310;8.646;2024-02-14T04:32:14;100944.94;;;12.36;58.25
19736;BME280;32064;49.310;8.646;2024-02-14T04:34:39;100944.94;;;12.36;58.26
19736;BME280;32064;49.310;8.646;2024-02-14T04:37:05;100944.84;;;12.38;57.03
19736;BME280;32064;49.310;8.646;2024-02-14T04:39:37;100960.47;;;12.41;57.54
19736;BME280;32064;49.310;8.646;2024-02-14T04:42:03;100952.56;;;12.41;59.28
19736;BME280;32064;49.310;8.646;2024-02-14T04:44:30;100957.50;;;12.33;57.64
19736;BME280;32064;49.310;8.646;2024-02-14T04:47:00;100953.81;;;12.35;57.86
19736;BME280;32064;49.310;8.646;2024-02-14T04:49:25;100968.47;;;12.40;58.57
19736;BME280;32064;49.310;8.646;2024-02-14T04:51:51;100972.69;;;12.42;58.29
19736;BME280;32064;49.310;8.646;2024-02-14T04:54:17;100956.47;;;12.48;57.42
19736;BME280;32064;49.310;8.646;2024-02-14T04:56:43;100962.06;;;12.44;59.01
19736;BME280;32064;49.310;8.646;2024-02-14T04:59:08;100954.13;;;12.44;59.67
19736;BME280;32064;49.310;8.646;2024-02-14T05:01:34;100955.09;;;12.43;57.77
19736;BME280;32064;49.310;8.646;2024-02-14T05:04:00;100955.59;;;12.48;57.55
19736;BME280;32064;49.310;8.646;2024-02-14T05:06:25;100953.94;;;12.47;58.51
19736;BME280;32064;49.310;8.646;2024-02-14T05:08:51;100959.81;;;12.50;59.28
19736;BME280;32064;49.310;8.646;2024-02-14T05:11:17;100960.44;;;12.54;58.43
19736;BME280;32064;49.310;8.646;2024-02-14T05:13:43;100962.03;;;12.56;59.24
19736;BME280;32064;49.310;8.646;2024-02-14T05:16:09;100952.34;;;12.57;59.25
19736;BME280;32064;49.310;8.646;2024-02-14T05:18:37;100946.41;;;12.53;58.88
19736;BME280;32064;49.310;8.646;2024-02-14T05:21:06;100945.16;;;12.59;58.75
19736;BME280;32064;49.310;8.646;2024-02-14T05:23:32;100942.50;;;12.59;59.15
19736;BME280;32064;49.310;8.646;2024-02-14T05:25:58;100947.69;;;12.61;59.59
19736;BME280;32064;49.310;8.646;2024-02-14T05:28:23;100947.78;;;12.59;59.13
19736;BME280;32064;49.310;8.646;2024-02-14T05:30:48;100947.47;;;12.64;57.69
19736;BME280;32064;49.310;8.646;2024-02-14T05:33:14;100948.31;;;12.64;59.33
19736;BME280;32064;49.310;8.646;2024-02-14T05:35:39;100946.94;;;12.58;59.05
19736;BME280;32064;49.310;8.646;2024-02-14T05:38:04;100946.72;;;12.62;59.63
19736;BME280;32064;49.310;8.646;2024-02-14T05:40:33;100945.47;;;12.54;59.22
19736;BME280;32064;49.310;8.646;2024-02-14T05:42:58;100948.44;;;12.50;58.54
19736;BME280;32064;49.310;8.646;2024-02-14T05:45:24;100947.19;;;12.43;58.64
19736;BME280;32064;49.310;8.646;2024-02-14T05:47:52;100934.09;;;12.41;59.40
19736;BME280;32064;49.310;8.646;2024-02-14T05:50:17;100934.16;;;12.40;58.93
19736;BME280;32064;49.310;8.646;2024-02-14T05:52:44;100938.41;;;12.42;59.78
19736;BME280;32064;49.310;8.646;2024-02-14T05:55:12;100949.47;;;12.47;60.04
19736;BME280;32064;49.310;8.646;2024-02-14T05:57:38;100940.63;;;12.48;59.67
19736;BME280;32064;49.310;8.646;2024-02-14T06:00:03;100950.97;;;12.51;59.99
19736;BME280;32064;49.310;8.646;2024-02-14T06:02:29;100962.03;;;12.56;58.53
19736;BME280;32064;49.310;8.646;2024-02-14T06:04:55;100960.13;;;12.58;59.75
19736;BME280;32064;49.310;8.646;2024-02-14T06:07:20;100961.63;;;12.63;58.41
19736;BME280;32064;49.310;8.646;2024-02-14T06:09:45;100966.91;;;12.63;59.56
19736;BME280;32064;49.310;8.646;2024-02-14T06:12:11;100971.97;;;12.66;58.56
19736;BME280;32064;49.310;8.646;2024-02-14T06:14:36;100969.75;;;12.59;59.72
19736;BME280;32064;49.310;8.646;2024-02-14T06:17:02;100971.97;;;12.66;60.41
19736;BME280;32064;49.310;8.646;2024-02-14T06:19:27;100979.25;;;12.62;59.18
19736;BME280;32064;49.310;8.646;2024-02-14T06:21:53;100980.41;;;12.58;60.59
19736;BME280;32064;49.310;8.646;2024-02-14T06:24:18;100977.47;;;12.63;59.96
19736;BME280;32064;49.310;8.646;2024-02-14T06:26:46;100983.16;;;12.69;59.88
19736;BME280;32064;49.310;8.646;2024-02-14T06:29:12;100990.13;;;12.70;59.06
19736;BME280;32064;49.310;8.646;2024-02-14T06:31:37;100990.66;;;12.75;60.12
19736;BME280;32064;49.310;8.646;2024-02-14T06:34:03;100992.31;;;12.76;59.30
19736;BME280;32064;49.310;8.646;2024-02-14T06:36:28;100992.22;;;12.78;59.04
19736;BME280;32064;49.310;8.646;2024-02-14T06:38:53;100999.31;;;12.77;59.77
19736;BME280;32064;49.310;8.646;2024-02-14T06:41:22;101004.38;;;12.80;58.55
19736;BME280;32064;49.310;8.646;2024-02-14T06:43:48;100997.09;;;12.84;59.71
19736;BME280;32064;49.310;8.646;2024-02-14T06:46:14;101002.28;;;12.86;59.58
19736;BME280;32064;49.310;8.646;2024-02-14T06:48:39;101005.84;;;12.85;58.68
19736;BME280;32064;49.310;8.646;2024-02-14T06:51:06;100988.31;;;12.84;59.68
19736;BME280;32064;49.310;8.646;2024-02-14T06:53:32;100995.50;;;12.81;59.42
19736;BME280;32064;49.310;8.646;2024-02-14T06:55:57;100993.06;;;12.78;59.99
19736;BME280;32064;49.310;8.646;2024-02-14T06:58:23;100999.22;;;12.66;59.15
19736;BME280;32064;49.310;8.646;2024-02-14T07:00:48;101006.19;;;12.67;58.94
19736;BME280;32064;49.310;8.646;2024-02-14T07:03:13;101002.47;;;12.70;58.90
19736;BME280;32064;49.310;8.646;2024-02-14T07:05:39;101017.69;;;12.66;59.63
19736;BME280;32064;49.310;8.646;2024-02-14T07:08:04;101024.56;;;12.69;60.68
19736;BME280;32064;49.310;8.646;2024-02-14T07:10:30;101019.50;;;12.66;60.05
19736;BME280;32064;49.310;8.646;2024-02-14T07:12:56;101022.84;;;12.68;59.70
19736;BME280;32064;49.310;8.646;2024-02-14T07:15:21;101031.53;;;12.70;59.85
19736;BME280;32064;49.310;8.646;2024-02-14T07:17:47;101018.94;;;12.73;60.15
19736;BME280;32064;49.310;8.646;2024-02-14T07:20:13;101029.00;;;12.68;59.97
19736;BME280;32064;49.310;8.646;2024-02-14T07:22:38;101027.28;;;12.67;60.40
19736;BME280;32064;49.310;8.646;2024-02-14T07:25:04;101030.25;;;12.75;59.67
19736;BME280;32064;49.310;8.646;2024-02-14T07:27:30;101037.97;;;12.78;59.02
19736;BME280;32064;49.310;8.646;2024-02-14T07:29:55;101035.44;;;12.77;60.35
19736;BME280;32064;49.310;8.646;2024-02-14T07:32:21;101038.47;;;12.71;59.28
19736;BME280;32064;49.310;8.646;2024-02-14T07:34:47;101029.50;;;12.73;59.57
19736;BME280;32064;49.310;8.646;2024-02-14T07:37:12;101038.06;;;12.64;60.44
19736;BME280;32064;49.310;8.646;2024-02-14T07:39:40;101036.81;;;12.70;60.18
19736;BME280;32064;49.310;8.646;2024-02-14T07:42:05;101045.03;;;12.65;59.94
19736;BME280;32064;49.310;8.646;2024-02-14T07:44:31;101044.84;;;12.68;59.61
19736;BME280;32064;49.310;8.646;2024-02-14T07:46:56;101043.03;;;12.81;59.68
19736;BME280;32064;49.310;8.646;2024-02-14T07:49:21;101049.88;;;12.84;59.44
19736;BME280;32064;49.310;8.646;2024-02-14T07:51:47;101047.38;;;12.83;59.73
19736;BME280;32064;49.310;8.646;2024-02-14T07:54:13;101042.06;;;12.70;59.56
19736;BME280;32064;49.310;8.646;2024-02-14T07:56:41;101043.69;;;12.85;60.55
19736;BME280;32064;49.310;8.646;2024-02-14T07:59:07;101045.97;;;12.90;59.50
19736;BME280;32064;49.310;8.646;2024-02-14T08:01:32;101047.88;;;13.00;60.90
19736;BME280;32064;49.310;8.646;2024-02-14T08:03:58;101048.28;;;13.07;60.08
19736;BME280;32064;49.310;8.646;2024-02-14T08:06:23;101043.31;;;13.15;60.43
19736;BME280;32064;49.310;8.646;2024-02-14T08:08:49;101048.72;;;13.14;60.31
19736;BME280;32064;49.310;8.646;2024-02-14T08:11:16;101047.44;;;13.19;60.43
19736;BME280;32064;49.310;8.646;2024-02-14T08:13:42;101045.53;;;13.21;60.32
19736;BME280;32064;49.310;8.646;2024-02-14T08:16:08;101050.44;;;13.28;60.75
19736;BME280;32064;49.310;8.646;2024-02-14T08:18:33;101043.53;;;13.25;60.35
19736;BME280;32064;49.310;8.646;2024-02-14T08:21:00;101048.63;;;13.28;59.64
19736;BME280;32064;49.310;8.646;2024-02-14T08:23:25;101047.09;;;13.24;60.00
19736;BME280;32064;49.310;8.646;2024-02-14T08:25:51;101049.97;;;13.21;59.93
19736;BME280;32064;49.310;8.646;2024-02-14T08:28:16;101053.22;;;13.24;60.56
19736;BME280;32064;49.310;8.646;2024-02-14T08:30:43;101055.59;;;13.29;60.33
19736;BME280;32064;49.310;8.646;2024-02-14T08:33:09;101051.03;;;13.31;60.84
19736;BME280;32064;49.310;8.646;2024-02-14T08:35:36;101059.06;;;13.30;60.33
19736;BME280;32064;49.310;8.646;2024-02-14T08:38:01;101054.41;;;13.33;61.04
19736;BME280;32064;49.310;8.646;2024-02-14T08:40:26;101056.63;;;13.39;60.09
19736;BME280;32064;49.310;8.646;2024-02-14T08:42:52;101060.72;;;13.43;60.22
19736;BME280;32064;49.310;8.646;2024-02-14T08:45:18;101062.97;;;13.37;61.31
19736;BME280;32064;49.310;8.646;2024-02-14T08:47:44;101060.41;;;13.48;60.99
19736;BME280;32064;49.310;8.646;2024-02-14T08:50:09;101057.19;;;13.56;60.65
19736;BME280;32064;49.310;8.646;2024-02-14T08:52:35;101061.56;;;13.57;60.99
19736;BME280;32064;49.310;8.646;2024-02-14T08:55:03;101062.28;;;13.59;60.04
19736;BME280;32064;49.310;8.646;2024-02-14T08:57:28;101061.19;;;13.61;61.18
19736;BME280;32064;49.310;8.646;2024-02-14T08:59:56;101057.50;;;13.64;61.20
19736;BME280;32064;49.310;8.646;2024-02-14T09:02:24;101061.50;;;13.69;61.07
19736;BME280;32064;49.310;8.646;2024-02-14T09:04:50;101056.84;;;13.73;60.96
19736;BME280;32064;49.310;8.646;2024-02-14T09:07:16;101049.31;;;13.80;61.04
19736;BME280;32064;49.310;8.646;2024-02-14T09:09:41;101048.47;;;13.79;61.04
19736;BME280;32064;49.310;8.646;2024-02-14T09:12:07;101044.97;;;13.79;60.37
19736;BME280;32064;49.310;8.646;2024-02-14T09:14:33;101046.44;;;13.83;60.96
19736;BME280;32064;49.310;8.646;2024-02-14T09:16:58;101050.53;;;13.87;60.95
19736;BME280;32064;49.310;8.646;2024-02-14T09:19:24;101045.13;;;13.88;61.01
19736;BME280;32064;49.310;8.646;2024-02-14T09:21:50;101049.22;;;13.92;60.84
19736;BME280;32064;49.310;8.646;2024-02-14T09:24:16;101046.25;;;13.97;60.65
19736;BME280;32064;49.310;8.646;2024-02-14T09:26:41;101047.84;;;14.00;60.48
19736;BME280;32064;49.310;8.646;2024-02-14T09:29:08;101043.88;;;14.05;61.08
19736;BME280;32064;49.310;8.646;2024-02-14T09:31:36;101052.38;;;13.98;60.76
19736;BME280;32064;49.310;8.646;2024-02-14T09:34:01;101048.81;;;13.99;60.97
19736;BME280;32064;49.310;8.646;2024-02-14T09:36:27;101049.91;;;14.07;61.20
19736;BME280;32064;49.310;8.646;2024-02-14T09:38:52;101040.28;;;14.06;61.67
19736;BME280;32064;49.310;8.646;2024-02-14T09:41:36;101036.47;;;14.10;61.04
19736;BME280;32064;49.310;8.646;2024-02-14T09:44:03;101040.44;;;14.16;60.86
19736;BME280;32064;49.310;8.646;2024-02-14T09:46:28;101044.44;;;14.22;60.80
19736;BME280;32064;49.310;8.646;2024-02-14T09:48:56;101051.06;;;14.27;61.15
19736;BME280;32064;49.310;8.646;2024-02-14T09:51:23;101053.81;;;14.26;61.55
19736;BME280;32064;49.310;8.646;2024-02-14T09:53:49;101059.84;;;14.28;61.19
19736;BME280;32064;49.310;8.646;2024-02-14T09:56:16;101059.94;;;14.26;61.18
19736;BME280;32064;49.310;8.646;2024-02-14T09:58:45;101059.53;;;14.32;61.02
19736;BME280;32064;49.310;8.646;2024-02-14T10:01:15;101053.63;;;14.40;60.79
19736;BME280;32064;49.310;8.646;2024-02-14T10:03:40;101052.22;;;14.47;61.00
19736;BME280;32064;49.310;8.646;2024-02-14T10:06:06;101048.28;;;14.53;60.81
19736;BME280;32064;49.310;8.646;2024-02-14T10:08:32;101048.34;;;14.51;61.26
19736;BME280;32064;49.310;8.646;2024-02-14T10:10:57;101062.03;;;14.58;61.50
19736;BME280;32064;49.310;8.646;2024-02-14T10:13:27;101055.53;;;14.62;60.66
19736;BME280;32064;49.310;8.646;2024-02-14T10:15:52;101062.13;;;14.56;61.10
19736;BME280;32064;49.310;8.646;2024-02-14T10:18:17;101062.22;;;14.55;61.03
19736;BME280;32064;49.310;8.646;2024-02-14T10:20:55;101064.69;;;14.58;61.49
19736;BME280;32064;49.310;8.646;2024-02-14T10:23:21;101066.63;;;14.67;61.02
19736;BME280;32064;49.310;8.646;2024-02-14T10:25:49;101070.84;;;14.70;61.45
19736;BME280;32064;49.310;8.646;2024-02-14T10:28:15;101071.78;;;14.69;60.87
19736;BME280;32064;49.310;8.646;2024-02-14T10:30:45;101071.50;;;14.60;61.09
19736;BME280;32064;49.310;8.646;2024-02-14T10:33:11;101072.75;;;14.68;61.13
19736;BME280;32064;49.310;8.646;2024-02-14T10:35:37;101079.03;;;14.67;61.15
19736;BME280;32064;49.310;8.646;2024-02-14T10:38:07;101079.63;;;14.70;60.87
19736;BME280;32064;49.310;8.646;2024-02-14T10:40:35;101081.44;;;14.70;61.14
19736;BME280;32064;49.310;8.646;2024-02-14T10:43:01;101080.22;;;14.74;61.45
19736;BME280;32064;49.310;8.646;2024-02-14T10:45:27;101088.75;;;14.77;61.10
19736;BME280;32064;49.310;8.646;2024-02-14T10:47:56;101088.91;;;14.76;61.26
19736;BME280;32064;49.310;8.646;2024-02-14T10:50:24;101094.06;;;14.77;61.44
19736;BME280;32064;49.310;8.646;2024-02-14T10:52:51;101089.50;;;14.79;61.44
19736;BME280;32064;49.310;8.646;2024-02-14T10:55:20;101089.25;;;14.82;62.06
19736;BME280;32064;49.310;8.646;2024-02-14T10:57:46;101090.09;;;14.83;62.37
19736;BME280;32064;49.310;8.646;2024-02-14T11:00:14;101077.81;;;14.82;62.41
19736;BME280;32064;49.310;8.646;2024-02-14T11:02:42;101081.94;;;14.86;62.63
19736;BME280;32064;49.310;8.646;2024-02-14T11:05:14;101080.63;;;14.80;62.93
19736;BME280;32064;49.310;8.646;2024-02-14T11:07:45;101092.16;;;14.79;62.54
19736;BME280;32064;49.310;8.646;2024-02-14T11:10:18;101095.28;;;14.85;63.21
19736;BME280;32064;49.310;8.646;2024-02-14T11:12:43;101095.41;;;14.83;62.99
19736;BME280;32064;49.310;8.646;2024-02-14T11:15:19;101089.41;;;14.81;63.25
19736;BME280;32064;49.310;8.646;2024-02-14T11:17:46;101088.31;;;14.84;62.75
19736;BME280;32064;49.310;8.646;2024-02-14T11:20:18;101083.88;;;14.84;63.45
19736;BME280;32064;49.310;8.646;2024-02-14T11:22:57;101085.66;;;14.84;63.03
19736;BME280;32064;49.310;8.646;2024-02-14T11:25:28;101084.69;;;14.85;64.04
19736;BME280;32064;49.310;8.646;2024-02-14T11:27:55;101072.28;;;14.85;63.92
19736;BME280;32064;49.310;8.646;2024-02-14T11:30:36;101076.50;;;14.88;63.84
19736;BME280;32064;49.310;8.646;2024-02-14T11:33:13;101072.31;;;14.96;64.22
19736;BME280;32064;49.310;8.646;2024-02-14T11:35:43;101077.09;;;14.91;64.18
19736;BME280;32064;49.310;8.646;2024-02-14T11:38:09;101089.28;;;14.94;64.52
19736;BME280;32064;49.310;8.646;2024-02-14T11:40:36;101090.03;;;15.07;64.18
19736;BME280;32064;49.310;8.646;2024-02-14T11:43:03;101083.25;;;15.14;64.34
19736;BME280;32064;49.310;8.646;2024-02-14T11:45:29;101082.06;;;15.18;63.76
19736;BME280;32064;49.310;8.646;2024-02-14T11:47:55;101087.88;;;15.23;64.30
19736;BME280;32064;49.310;8.646;2024-02-14T11:50:21;101085.81;;;15.27;64.25
19736;BME280;32064;49.310;8.646;2024-02-14T11:52:46;101079.06;;;15.23;64.02
19736;BME280;32064;49.310;8.646;2024-02-14T11:55:12;101076.53;;;15.21;65.11
19736;BME280;32064;49.310;8.646;2024-02-14T11:57:41;101079.66;;;15.15;65.30
19736;BME280;32064;49.310;8.646;2024-02-14T12:00:08;101071.47;;;15.18;64.93
19736;BME280;32064;49.310;8.646;2024-02-14T12:02:33;101064.13;;;15.11;65.29
19736;BME280;32064;49.310;8.646;2024-02-14T12:04:59;101065.34;;;15.07;65.22
19736;BME280;32064;49.310;8.646;2024-02-14T12:07:25;101059.19;;;15.06;65.64
19736;BME280;32064;49.310;8.646;2024-02-14T12:09:51;101058.31;;;15.17;65.16
19736;BME280;32064;49.310;8.646;2024-02-14T12:12:16;101054.34;;;15.22;66.03
19736;BME280;32064;49.310;8.646;2024-02-14T12:14:45;101049.44;;;15.18;65.33
19736;BME280;32064;49.310;8.646;2024-02-14T12:17:16;101042.31;;;15.30;66.01
19736;BME280;32064;49.310;8.646;2024-02-14T12:19:44;101032.19;;;15.35;65.34
19736;BME280;32064;49.310;8.646;2024-02-14T12:22:10;101032.28;;;15.44;65.43
19736;BME280;32064;49.310;8.646;2024-02-14T12:24:44;101038.78;;;15.52;65.04
19736;BME280;32064;49.310;8.646;2024-02-14T12:27:09;101039.22;;;15.57;65.50
19736;BME280;32064;49.310;8.646;2024-02-14T12:29:35;101044.44;;;15.58;65.67
19736;BME280;32064;49.310;8.646;2024-02-14T12:32:07;101036.22;;;15.61;65.71
19736;BME280;32064;49.310;8.646;2024-02-14T12:34:33;101031.50;;;15.65;64.78
19736;BME280;32064;49.310;8.646;2024-02-14T12:36:59;101036.69;;;15.66;64.73
19736;BME280;32064;49.310;8.646;2024-02-14T12:39:28;101025.75;;;15.71;65.96
19736;BME280;32064;49.310;8.646;2024-02-14T12:41:54;101028.59;;;15.79;65.52
19736;BME280;32064;49.310;8.646;2024-02-14T12:44:20;101033.91;;;15.79;65.53
19736;BME280;32064;49.310;8.646;2024-02-14T12:46:45;101029.53;;;15.89;65.51